createdAt,value
2023-04-21T12:53:35.159Z,53.47
2023-04-21T12:54:35.194Z,53.37
2023-04-21T12:55:35.101Z,53.47
2023-04-21T12:56:35.090Z,53.27
2023-04-21T12:57:35.088Z,53.50
2023-04-21T12:58:35.363Z,54.70
2023-04-21T12:59:35.059Z,55.20
2023-04-21T13:00:35.068Z,54.00
2023-04-21T13:01:35.097Z,54.50
2023-04-21T13:02:35.170Z,54.70
2023-04-21T13:03:35.313Z,54.38
2023-04-21T13:04:35.258Z,55.15
2023-04-21T13:05:35.003Z,54.05
2023-04-21T13:06:34.989Z,53.34
2023-04-21T13:07:34.967Z,53.67
2023-04-21T13:08:34.984Z,53.57
2023-04-21T13:09:34.978Z,54.27
2023-04-21T13:10:34.934Z,54.80
2023-04-21T13:11:34.933Z,54.00
2023-04-21T13:12:34.910Z,54.50
2023-04-21T13:13:34.907Z,55.60
2023-04-21T13:14:34.960Z,54.90
2023-04-21T13:15:34.901Z,54.60
2023-04-21T13:16:34.929Z,55.18
2023-04-21T13:17:34.921Z,54.95
2023-04-21T13:18:34.893Z,55.37
2023-04-21T13:19:35.211Z,54.44
2023-04-21T13:20:34.836Z,51.64
2023-04-21T13:21:34.850Z,53.32
2023-04-21T13:22:34.799Z,54.99
2023-04-21T13:23:34.787Z,54.29
2023-04-21T13:24:34.803Z,52.49
2023-04-21T13:25:34.789Z,52.39
2023-04-21T13:26:34.762Z,51.84
2023-04-21T13:27:34.768Z,52.77
2023-04-21T13:28:34.732Z,53.87
2023-04-21T13:29:34.754Z,52.87
2023-04-21T13:30:34.709Z,52.42
2023-04-21T13:31:34.949Z,53.42
2023-04-21T13:32:34.742Z,53.34
2023-04-21T13:33:34.682Z,52.72
2023-04-21T13:34:34.972Z,52.64
2023-04-21T13:35:34.647Z,52.84
2023-04-21T13:36:34.647Z,51.87
2023-04-21T13:37:34.640Z,51.82
2023-04-21T13:38:34.643Z,52.82
2023-04-21T13:39:35.040Z,50.62
2023-04-21T13:40:34.624Z,50.92
2023-04-21T13:41:34.612Z,50.99
2023-04-21T13:42:34.577Z,52.09
2023-04-21T13:43:34.558Z,51.29
2023-04-21T13:44:34.566Z,51.09
2023-04-21T13:45:34.586Z,52.47
2023-04-21T13:46:34.752Z,51.79
2023-04-21T13:47:34.585Z,51.69
2023-04-21T13:48:34.527Z,51.46
2023-04-21T13:49:34.854Z,50.67
2023-04-21T13:50:34.479Z,49.76
2023-04-21T13:51:34.476Z,51.27
2023-04-21T13:52:34.502Z,50.84
2023-04-21T13:53:34.455Z,51.07
2023-04-21T13:54:34.793Z,51.37
2023-04-21T13:55:34.449Z,51.39
2023-04-21T13:56:34.427Z,51.51
2023-04-21T13:57:34.431Z,52.22
2023-04-21T13:58:34.442Z,52.94
2023-04-21T13:59:34.701Z,52.24
2023-04-21T14:00:34.408Z,53.17
2023-04-21T14:01:34.419Z,53.17
2023-04-21T14:02:34.726Z,53.57
2023-04-21T14:03:34.447Z,51.84
2023-04-21T14:04:34.559Z,52.55
2023-04-21T14:05:34.564Z,50.71
2023-04-21T14:06:34.301Z,51.49
2023-04-21T14:07:34.289Z,51.49
2023-04-21T14:08:34.278Z,51.99
2023-04-21T14:09:34.711Z,52.17
2023-04-21T14:10:34.265Z,51.77
2023-04-21T14:11:34.264Z,51.34
2023-04-21T14:12:34.276Z,52.14
2023-04-21T14:13:41.839Z,52.72
2023-04-21T14:14:38.734Z,51.42
2023-04-21T14:15:34.220Z,51.25
2023-04-21T14:16:34.245Z,51.84
2023-04-21T14:17:34.202Z,52.84
2023-04-21T14:18:34.165Z,51.46
2023-04-21T14:19:34.498Z,51.69
2023-04-21T14:20:34.166Z,53.17
2023-04-21T14:21:34.136Z,52.57
2023-04-21T14:22:34.120Z,52.74
2023-04-21T14:23:34.122Z,52.44
2023-04-21T14:24:34.124Z,52.34
2023-04-21T14:25:34.116Z,51.74
2023-04-21T14:26:34.144Z,51.34
2023-04-21T14:27:34.091Z,51.39
2023-04-21T14:28:34.060Z,52.49
2023-04-21T14:29:34.522Z,52.52
2023-04-21T14:30:34.037Z,53.05
2023-04-21T14:31:34.066Z,53.07
2023-04-21T14:32:34.201Z,54.17
2023-04-21T14:33:34.028Z,53.47
2023-04-21T14:34:34.027Z,53.67
2023-04-21T14:35:34.009Z,53.20
2023-04-21T14:36:33.994Z,53.37
2023-04-21T14:37:33.962Z,54.07
2023-04-21T14:38:33.986Z,54.38
2023-04-21T14:39:34.331Z,53.34
2023-04-21T14:40:33.955Z,53.34
2023-04-21T14:41:33.917Z,53.27
2023-04-21T14:42:33.954Z,53.37
2023-04-21T14:43:33.958Z,54.40
2023-04-21T14:44:33.896Z,54.83
2023-04-21T14:45:33.936Z,54.63
2023-04-21T14:46:33.885Z,55.03
2023-04-21T14:47:33.908Z,55.33
2023-04-21T14:48:33.836Z,55.23
2023-04-21T14:49:34.228Z,54.93
2023-04-21T14:50:33.811Z,54.83
2023-04-21T14:51:33.853Z,54.96
2023-04-21T14:52:33.794Z,54.35
2023-04-21T14:53:33.796Z,54.45
2023-04-21T14:54:33.791Z,55.05
2023-04-21T14:55:33.766Z,54.72
2023-04-21T14:56:33.743Z,54.70
2023-04-21T14:57:33.749Z,54.63
2023-04-21T14:58:33.719Z,54.38
2023-04-21T14:59:33.940Z,54.38
2023-04-21T15:00:33.697Z,54.38
2023-04-21T15:01:33.832Z,53.34
2023-04-21T15:02:33.834Z,54.35
2023-04-21T15:03:33.797Z,53.45
2023-04-21T15:04:33.790Z,53.32
2023-04-21T15:05:33.756Z,52.82
2023-04-21T15:06:33.638Z,53.02
2023-04-21T15:07:33.654Z,52.32
2023-04-21T15:08:33.821Z,52.12
2023-04-21T15:09:33.857Z,53.42
2023-04-21T15:10:33.608Z,53.02
2023-04-21T15:11:33.574Z,52.84
2023-04-21T15:12:35.903Z,52.82
2023-04-21T15:13:33.577Z,52.64
2023-04-21T15:14:33.551Z,52.14
2023-04-21T15:15:33.603Z,53.34
2023-04-21T15:16:33.559Z,52.75
2023-04-21T15:17:33.540Z,53.47
2023-04-21T15:18:33.504Z,53.64
2023-04-21T15:19:33.635Z,53.14
2023-04-21T15:20:44.440Z,52.97
2023-04-21T15:21:34.463Z,52.97
2023-04-21T15:22:33.453Z,52.97
2023-04-21T15:23:33.446Z,52.84
2023-04-21T15:24:33.462Z,53.07
2023-04-21T15:25:33.421Z,53.75
2023-04-21T15:26:33.409Z,53.45
2023-04-21T15:27:33.397Z,53.25
2023-04-21T15:28:33.647Z,52.94
2023-04-21T15:29:33.762Z,53.05
2023-04-21T15:30:33.359Z,52.17
2023-04-21T15:31:33.442Z,52.97
2023-04-21T15:32:33.362Z,53.57
2023-04-21T15:33:33.353Z,53.17
2023-04-21T15:34:33.335Z,52.77
2023-04-21T15:35:33.304Z,52.77
2023-04-21T15:36:33.495Z,53.97
2023-04-21T15:37:33.337Z,52.87
2023-04-21T15:38:33.294Z,52.77
2023-04-21T15:39:33.413Z,53.27
2023-04-21T15:40:33.302Z,53.47
2023-04-21T15:41:33.260Z,52.77
2023-04-21T15:42:33.230Z,52.47
2023-04-21T15:43:33.226Z,54.07
2023-04-21T15:44:33.528Z,52.49
2023-04-21T15:45:33.239Z,52.87
2023-04-21T15:46:33.290Z,52.17
2023-04-21T15:47:33.254Z,52.39
2023-04-21T15:48:33.238Z,52.49
2023-04-21T15:49:33.242Z,51.89
2023-04-21T15:50:33.151Z,53.20
2023-04-21T15:51:33.131Z,52.59
2023-04-21T15:52:33.116Z,52.67
2023-04-21T15:53:33.107Z,52.29
2023-04-21T15:54:33.141Z,51.69
2023-04-21T15:55:33.090Z,52.29
2023-04-21T15:56:33.065Z,52.69
2023-04-21T15:57:33.057Z,52.49
2023-04-21T15:58:33.054Z,51.99
2023-04-21T15:59:33.061Z,51.89
2023-04-21T16:00:33.075Z,51.89
2023-04-21T16:01:33.123Z,53.09
2023-04-21T16:02:33.263Z,53.59
2023-04-21T16:03:33.185Z,53.32
2023-04-21T16:04:33.318Z,52.59
2023-04-21T16:05:33.231Z,52.69
2023-04-21T16:06:33.031Z,52.32
2023-04-21T16:07:33.046Z,52.32
2023-04-21T16:08:33.144Z,52.19
2023-04-21T16:09:33.000Z,53.50
2023-04-21T16:10:32.938Z,52.69
2023-04-21T16:11:32.928Z,52.72
2023-04-21T16:12:32.941Z,51.89
2023-04-21T16:13:32.891Z,53.00
2023-04-21T16:14:46.506Z,52.59
2023-04-21T16:15:33.872Z,53.20
2023-04-21T16:16:32.922Z,51.99
2023-04-21T16:17:32.958Z,52.19
2023-04-21T16:18:32.964Z,52.39
2023-04-21T16:19:32.889Z,50.99
2023-04-21T16:20:32.823Z,51.92
2023-04-21T16:21:32.912Z,51.42
2023-04-21T16:22:32.890Z,50.61
2023-04-21T16:23:32.766Z,51.31
2023-04-21T16:24:32.877Z,50.61
2023-04-21T16:25:32.944Z,51.92
2023-04-21T16:26:32.768Z,52.92
2023-04-21T16:27:32.777Z,51.51
2023-04-21T16:28:32.707Z,52.62
2023-04-21T16:29:32.779Z,53.12
2023-04-21T16:30:32.739Z,51.42
2023-04-21T16:31:32.791Z,52.01
2023-04-21T16:32:32.793Z,53.34
2023-04-21T16:33:32.703Z,52.34
2023-04-21T16:34:32.702Z,52.34
2023-04-21T16:35:32.699Z,53.32
2023-04-21T16:36:32.668Z,52.74
2023-04-21T16:37:32.626Z,52.84
2023-04-21T16:38:32.615Z,53.45
2023-04-21T16:39:32.617Z,52.94
2023-04-21T16:40:32.611Z,52.44
2023-04-21T16:41:32.600Z,51.74
2023-04-21T16:42:32.564Z,51.64
2023-04-21T16:43:32.541Z,51.92
2023-04-21T16:44:32.585Z,53.25
2023-04-21T16:45:32.516Z,52.44
2023-04-21T16:46:32.664Z,51.94
2023-04-21T16:47:32.607Z,52.64
2023-04-21T16:48:32.768Z,51.94
2023-04-21T16:49:32.567Z,52.17
2023-04-21T16:50:32.519Z,52.55
2023-04-21T16:51:32.454Z,52.14
2023-04-21T16:52:32.430Z,52.67
2023-04-21T16:53:32.458Z,51.86
2023-04-21T16:54:32.416Z,51.97
2023-04-21T16:55:32.404Z,51.66
2023-04-21T16:56:32.396Z,52.57
2023-04-21T16:57:32.384Z,52.77
2023-04-21T16:58:32.397Z,52.06
2023-04-21T16:59:33.056Z,51.66
2023-04-21T17:00:32.402Z,52.06
2023-04-21T17:01:32.399Z,53.09
2023-04-21T17:02:32.519Z,52.57
2023-04-21T17:03:32.533Z,52.87
2023-04-21T17:04:32.323Z,52.80
2023-04-21T17:05:32.318Z,52.67
2023-04-21T17:06:32.277Z,52.59
2023-04-21T17:07:32.390Z,52.29
2023-04-21T17:08:32.265Z,52.59
2023-04-21T17:09:32.299Z,53.30
2023-04-21T17:10:32.282Z,53.09
2023-04-21T17:11:32.344Z,52.80
2023-04-21T17:12:32.213Z,52.06
2023-04-21T17:13:32.205Z,52.26
2023-04-21T17:14:32.230Z,51.66
2023-04-21T17:15:32.174Z,52.87
2023-04-21T17:16:32.236Z,52.17
2023-04-21T17:17:32.184Z,51.64
2023-04-21T17:18:32.155Z,52.57
2023-04-21T17:19:32.131Z,51.86
2023-04-21T17:20:32.142Z,52.89
2023-04-21T17:21:32.106Z,53.20
2023-04-21T17:22:32.108Z,53.40
2023-04-21T17:23:32.108Z,54.63
2023-04-21T17:24:44.818Z,53.92
2023-04-21T17:25:33.085Z,53.63
2023-04-21T17:26:32.062Z,53.65
2023-04-21T17:27:32.039Z,53.65
2023-04-21T17:28:32.047Z,53.05
2023-04-21T17:29:32.018Z,53.14
2023-04-21T17:30:32.007Z,54.15
2023-04-21T17:31:32.028Z,54.75
2023-04-21T17:32:33.749Z,54.35
2023-04-21T17:33:32.047Z,53.67
2023-04-21T17:34:31.959Z,54.79
2023-04-21T17:35:31.951Z,53.45
2023-04-21T17:36:31.945Z,54.68
2023-04-21T17:37:31.928Z,53.67
2023-04-21T17:38:31.959Z,54.68
2023-04-21T17:39:31.904Z,54.38
2023-04-21T17:40:31.885Z,53.78
2023-04-21T17:41:31.901Z,54.79
2023-04-21T17:42:31.869Z,54.79
2023-04-21T17:43:31.873Z,54.68
2023-04-21T17:44:31.862Z,54.68
2023-04-21T17:45:31.840Z,54.71
2023-04-21T17:46:31.890Z,54.61
2023-04-21T17:47:31.920Z,54.91
2023-04-21T17:48:31.836Z,55.71
2023-04-21T17:49:31.805Z,55.41
2023-04-21T17:50:31.925Z,55.11
2023-04-21T17:51:31.767Z,55.34
2023-04-21T17:52:31.753Z,54.81
2023-04-21T17:53:31.763Z,54.91
2023-04-21T17:54:31.736Z,55.01
2023-04-21T17:55:31.727Z,55.04
2023-04-21T17:56:31.718Z,54.81
2023-04-21T17:57:31.724Z,54.81
2023-04-21T17:58:31.703Z,55.14
2023-04-21T17:59:31.696Z,55.71
2023-04-21T18:00:31.665Z,55.54
2023-04-21T18:01:31.697Z,56.24
2023-04-21T18:02:31.757Z,55.94
2023-04-21T18:03:31.774Z,56.57
2023-04-21T18:04:31.744Z,56.27
2023-04-21T18:05:31.613Z,57.08
2023-04-21T18:06:31.618Z,57.68
2023-04-21T18:07:31.610Z,57.41
2023-04-21T18:08:31.619Z,57.51
2023-04-21T18:09:31.656Z,56.60
2023-04-21T18:10:31.566Z,55.99
2023-04-21T18:11:31.562Z,56.37
2023-04-21T18:12:31.545Z,56.07
2023-04-21T18:13:31.560Z,56.40
2023-04-21T18:14:31.532Z,56.77
2023-04-21T18:15:31.503Z,57.10
2023-04-21T18:16:31.519Z,57.74
2023-04-21T18:17:31.574Z,57.91
2023-04-21T18:18:32.487Z,58.04
2023-04-21T18:19:31.486Z,57.23
2023-04-21T18:20:31.443Z,58.45
2023-04-21T18:21:31.975Z,57.87
2023-04-21T18:22:31.419Z,57.87
2023-04-21T18:23:31.427Z,57.64
2023-04-21T18:24:31.604Z,57.56
2023-04-21T18:25:42.085Z,58.67
2023-04-21T18:26:32.377Z,58.30
2023-04-21T18:27:32.491Z,58.20
2023-04-21T18:28:31.468Z,59.00
2023-04-21T18:29:31.368Z,58.30
2023-04-21T18:30:31.337Z,58.07
2023-04-21T18:31:31.368Z,58.30
2023-04-21T18:32:31.340Z,58.09
2023-04-21T18:33:31.692Z,58.70
2023-04-21T18:34:31.348Z,58.50
2023-04-21T18:35:31.270Z,59.21
2023-04-21T18:36:33.449Z,58.70
2023-04-21T18:37:31.294Z,58.50
2023-04-21T18:38:31.246Z,59.41
2023-04-21T18:39:31.440Z,59.51
2023-04-21T18:40:31.228Z,58.93
2023-04-21T18:41:31.203Z,59.31
2023-04-21T18:42:31.211Z,58.50
2023-04-21T18:43:31.263Z,58.09
2023-04-21T18:44:31.188Z,59.21
2023-04-21T18:45:31.226Z,59.00
2023-04-21T18:46:31.169Z,59.41
2023-04-21T18:47:31.263Z,59.84
2023-04-21T18:48:31.178Z,59.44
2023-04-21T18:49:31.110Z,60.45
2023-04-21T18:50:31.102Z,60.78
2023-04-21T18:51:31.089Z,60.17
2023-04-21T18:52:31.080Z,59.87
2023-04-21T18:53:31.086Z,60.48
2023-04-21T18:54:31.055Z,60.17
2023-04-21T18:55:31.053Z,59.67
2023-04-21T18:56:31.032Z,59.06
2023-04-21T18:57:31.033Z,59.87
2023-04-21T18:58:31.033Z,59.47
2023-04-21T18:59:30.998Z,60.98
2023-04-21T19:00:30.986Z,60.81
2023-04-21T19:01:31.127Z,60.41
2023-04-21T19:02:31.210Z,60.27
2023-04-21T19:03:31.254Z,60.10
2023-04-21T19:04:30.970Z,60.68
2023-04-21T19:05:31.794Z,60.48
2023-04-21T19:06:30.921Z,60.20
2023-04-21T19:07:30.915Z,60.61
2023-04-21T19:08:42.140Z,60.50
2023-04-21T19:09:31.884Z,60.10
2023-04-21T19:10:30.875Z,60.17
2023-04-21T19:11:30.863Z,60.27
2023-04-21T19:12:30.864Z,60.41
2023-04-21T19:13:30.857Z,60.50
2023-04-21T19:14:39.563Z,60.41
2023-04-21T19:15:31.900Z,60.50
2023-04-21T19:16:30.846Z,60.81
2023-04-21T19:17:30.871Z,60.71
2023-04-21T19:18:30.800Z,60.94
2023-04-21T19:19:30.779Z,60.63
2023-04-21T19:20:30.766Z,61.04
2023-04-21T19:21:30.750Z,60.20
2023-04-21T19:22:30.743Z,60.91
2023-04-21T19:23:30.756Z,60.71
2023-04-21T19:24:30.729Z,60.63
2023-04-21T19:25:30.707Z,60.50
2023-04-21T19:26:30.700Z,60.61
2023-04-21T19:27:30.682Z,60.61
2023-04-21T19:28:30.702Z,60.61
2023-04-21T19:29:30.663Z,60.20
2023-04-21T19:30:30.672Z,60.30
2023-04-21T19:31:30.738Z,60.20
2023-04-21T19:32:30.851Z,60.20
2023-04-21T19:33:30.666Z,60.20
2023-04-21T19:34:30.622Z,60.61
2023-04-21T19:35:30.616Z,60.61
2023-04-21T19:36:30.581Z,60.94
2023-04-21T19:37:32.978Z,61.55
2023-04-21T19:38:30.570Z,60.94
2023-04-21T19:39:30.557Z,60.94
2023-04-21T19:40:30.541Z,61.44
2023-04-21T19:41:30.531Z,61.24
2023-04-21T19:42:30.538Z,61.65
2023-04-21T19:43:30.524Z,61.44
2023-04-21T19:44:30.497Z,61.24
2023-04-21T19:45:30.491Z,60.63
2023-04-21T19:46:30.537Z,61.11
2023-04-21T19:47:30.454Z,60.50
2023-04-21T19:48:31.330Z,60.81
2023-04-21T19:49:30.450Z,61.41
2023-04-21T19:50:30.422Z,60.61
2023-04-21T19:51:30.418Z,60.50
2023-04-21T19:52:30.430Z,61.11
2023-04-21T19:53:30.403Z,61.32
2023-04-21T19:54:30.383Z,61.04
2023-04-21T19:55:30.367Z,61.35
2023-04-21T19:56:30.431Z,60.81
2023-04-21T19:57:30.337Z,60.71
2023-04-21T19:58:40.371Z,60.61
2023-04-21T19:59:31.329Z,60.94
2023-04-21T20:00:30.311Z,61.14
2023-04-21T20:01:30.296Z,61.24
2023-04-21T20:02:30.568Z,60.94
2023-04-21T20:03:30.600Z,61.44
2023-04-21T20:04:30.396Z,60.94
2023-04-21T20:05:30.270Z,60.71
2023-04-21T20:06:30.244Z,61.01
2023-04-21T20:07:30.236Z,60.30
2023-04-21T20:08:30.224Z,60.10
2023-04-21T20:09:30.222Z,60.41
2023-04-21T20:10:30.201Z,60.20
2023-04-21T20:11:30.184Z,60.71
2023-04-21T20:12:30.219Z,60.27
2023-04-21T20:13:30.169Z,60.30
2023-04-21T20:14:30.185Z,60.30
2023-04-21T20:15:30.140Z,60.61
2023-04-21T20:16:30.368Z,60.71
2023-04-21T20:17:30.141Z,61.21
2023-04-21T20:18:30.110Z,61.55
2023-04-21T20:19:30.114Z,60.94
2023-04-21T20:20:30.123Z,61.24
2023-04-21T20:21:30.091Z,61.95
2023-04-21T20:22:30.064Z,62.15
2023-04-21T20:23:30.049Z,61.68
2023-04-21T20:24:30.058Z,61.55
2023-04-21T20:25:30.020Z,61.58
2023-04-21T20:26:30.014Z,61.44
2023-04-21T20:27:30.014Z,61.65
2023-04-21T20:28:30.027Z,61.55
2023-04-21T20:29:29.994Z,61.68
2023-04-21T20:30:29.977Z,61.35
2023-04-21T20:31:30.002Z,61.98
2023-04-21T20:32:30.069Z,61.88
2023-04-21T20:33:29.935Z,61.88
2023-04-21T20:34:29.938Z,61.35
2023-04-21T20:35:29.910Z,62.05
2023-04-21T20:36:29.900Z,61.68
2023-04-21T20:37:30.028Z,61.58
2023-04-21T20:38:29.875Z,61.75
2023-04-21T20:39:29.891Z,61.78
2023-04-21T20:40:29.853Z,61.65
2023-04-21T20:41:29.842Z,61.68
2023-04-21T20:42:29.831Z,61.55
2023-04-21T20:43:29.837Z,61.98
2023-04-21T20:44:29.825Z,61.78
2023-04-21T20:45:29.802Z,61.88
2023-04-21T20:46:29.849Z,62.99
2023-04-21T20:47:29.777Z,62.59
2023-04-21T20:48:29.794Z,62.31
2023-04-21T20:49:29.806Z,62.59
2023-04-21T20:50:29.768Z,62.38
2023-04-21T20:51:29.749Z,62.89
2023-04-21T20:52:29.719Z,62.49
2023-04-21T20:53:29.720Z,62.21
2023-04-21T20:54:30.022Z,62.62
2023-04-21T20:55:29.694Z,62.82
2023-04-21T20:56:29.676Z,63.43
2023-04-21T20:57:29.667Z,63.02
2023-04-21T20:58:29.646Z,63.32
2023-04-21T20:59:29.700Z,63.02
2023-04-21T21:00:29.694Z,63.12
2023-04-21T21:01:30.896Z,63.35
2023-04-21T21:02:29.874Z,63.96
2023-04-21T21:03:29.762Z,63.86
2023-04-21T21:04:29.680Z,63.15
2023-04-21T21:05:29.567Z,63.76
2023-04-21T21:06:29.561Z,63.96
2023-04-21T21:07:29.569Z,63.15
2023-04-21T21:08:29.559Z,63.15
2023-04-21T21:09:29.561Z,64.07
2023-04-21T21:10:29.518Z,64.07
2023-04-21T21:11:29.502Z,63.46
2023-04-21T21:12:29.493Z,63.76
2023-04-21T21:13:29.480Z,64.00
2023-04-21T21:14:29.489Z,64.81
2023-04-21T21:15:29.455Z,64.81
2023-04-21T21:16:29.536Z,64.78
2023-04-21T21:17:29.574Z,64.78
2023-04-21T21:18:29.425Z,64.81
2023-04-21T21:19:29.433Z,64.67
2023-04-21T21:20:29.398Z,63.86
2023-04-21T21:21:29.393Z,64.91
2023-04-21T21:22:29.373Z,64.81
2023-04-21T21:23:29.361Z,64.30
2023-04-21T21:24:29.400Z,64.20
2023-04-21T21:25:29.356Z,64.37
2023-04-21T21:26:29.394Z,64.78
2023-04-21T21:27:29.342Z,64.70
2023-04-21T21:28:29.307Z,64.58
2023-04-21T21:29:29.317Z,64.70
2023-04-21T21:30:29.294Z,64.40
2023-04-21T21:31:29.313Z,65.21
2023-04-21T21:32:29.325Z,64.61
2023-04-21T21:33:29.244Z,64.70
2023-04-21T21:34:29.265Z,65.45
2023-04-21T21:35:29.234Z,65.42
2023-04-21T21:36:29.220Z,64.40
2023-04-21T21:37:29.222Z,65.14
2023-04-21T21:38:29.212Z,64.91
2023-04-21T21:39:29.194Z,64.43
2023-04-21T21:40:29.172Z,64.94
2023-04-21T21:41:29.182Z,65.34
2023-04-21T21:42:29.161Z,65.55
2023-04-21T21:43:29.138Z,65.65
2023-04-21T21:44:29.145Z,65.65
2023-04-21T21:45:29.118Z,65.04
2023-04-21T21:46:29.129Z,65.34
2023-04-21T21:47:29.110Z,65.95
2023-04-21T21:48:29.091Z,66.05
2023-04-21T21:49:29.142Z,66.69
2023-04-21T21:50:29.064Z,66.80
2023-04-21T21:51:29.061Z,66.80
2023-04-21T21:52:29.045Z,66.69
2023-04-21T21:53:29.032Z,67.54
2023-04-21T21:54:29.033Z,66.52
2023-04-21T21:55:29.025Z,66.80
2023-04-21T21:56:28.993Z,67.10
2023-04-21T21:57:29.006Z,66.69
2023-04-21T21:58:28.968Z,66.60
2023-04-21T21:59:28.979Z,66.63
2023-04-21T22:00:28.947Z,66.49
2023-04-21T22:01:29.033Z,66.49
2023-04-21T22:02:29.027Z,66.63
2023-04-21T22:03:29.138Z,66.69
2023-04-21T22:04:28.945Z,66.69
2023-04-21T22:05:28.890Z,68.12
2023-04-21T22:06:28.910Z,68.15
2023-04-21T22:07:28.865Z,68.35
2023-04-21T22:08:28.867Z,67.94
2023-04-21T22:09:28.918Z,68.66
2023-04-21T22:10:28.842Z,67.94
2023-04-21T22:11:28.826Z,68.76
2023-04-21T22:12:28.822Z,67.67
2023-04-21T22:13:28.812Z,67.13
2023-04-21T22:14:28.807Z,67.44
2023-04-21T22:15:28.783Z,67.24
2023-04-21T22:16:28.826Z,66.80
2023-04-21T22:17:28.769Z,66.69
2023-04-21T22:18:28.749Z,66.69
2023-04-21T22:19:28.778Z,66.80
2023-04-21T22:20:28.723Z,66.83
2023-04-21T22:21:28.716Z,66.49
2023-04-21T22:22:28.696Z,68.01
2023-04-21T22:23:28.695Z,66.80
2023-04-21T22:24:28.677Z,66.90
2023-04-21T22:25:28.681Z,66.39
2023-04-21T22:26:28.655Z,65.99
2023-04-21T22:27:28.646Z,66.16
2023-04-21T22:28:28.628Z,65.85
2023-04-21T22:29:28.632Z,66.97
2023-04-21T22:30:28.635Z,66.39
2023-04-21T22:31:28.621Z,66.69
2023-04-21T22:32:28.602Z,65.88
2023-04-21T22:33:28.570Z,65.88
2023-04-21T22:34:28.610Z,65.65
2023-04-21T22:35:28.576Z,66.97
2023-04-21T22:36:28.545Z,66.69
2023-04-21T22:37:28.532Z,66.80
2023-04-21T22:38:28.522Z,67.10
2023-04-21T22:39:28.501Z,65.99
2023-04-21T22:40:28.513Z,67.00
2023-04-21T22:41:28.492Z,66.49
2023-04-21T22:42:28.496Z,66.90
2023-04-21T22:43:28.474Z,66.08
2023-04-21T22:44:28.449Z,67.00
2023-04-21T22:45:28.470Z,66.80
2023-04-21T22:46:28.529Z,66.69
2023-04-21T22:47:28.471Z,66.69
2023-04-21T22:48:28.402Z,66.83
2023-04-21T22:49:28.393Z,66.69
2023-04-21T22:50:28.417Z,66.80
2023-04-21T22:51:28.375Z,66.49
2023-04-21T22:52:28.366Z,66.69
2023-04-21T22:53:28.350Z,66.69
2023-04-21T22:54:28.338Z,66.80
2023-04-21T22:55:28.367Z,66.80
2023-04-21T22:56:28.314Z,66.52
2023-04-21T22:57:28.302Z,66.49
2023-04-21T22:58:28.293Z,67.74
2023-04-21T22:59:28.283Z,67.24
2023-04-21T23:00:28.350Z,68.49
2023-04-21T23:01:28.436Z,67.44
2023-04-21T23:02:28.387Z,66.93
2023-04-21T23:03:28.526Z,66.60
2023-04-21T23:04:28.221Z,66.60
2023-04-21T23:05:28.232Z,66.90
2023-04-21T23:06:28.199Z,66.80
2023-04-21T23:07:28.223Z,66.69
2023-04-21T23:08:28.189Z,66.80
2023-04-21T23:09:28.206Z,66.80
2023-04-21T23:10:28.167Z,66.90
2023-04-21T23:11:28.144Z,66.49
2023-04-21T23:12:28.137Z,66.80
2023-04-21T23:13:28.123Z,67.30
2023-04-21T23:14:28.133Z,66.69
2023-04-21T23:15:28.110Z,66.69
2023-04-21T23:16:28.161Z,67.20
2023-04-21T23:17:28.177Z,67.00
2023-04-21T23:18:28.065Z,66.90
2023-04-21T23:19:28.063Z,66.60
2023-04-21T23:20:28.080Z,66.29
2023-04-21T23:21:28.034Z,66.49
2023-04-21T23:22:28.019Z,66.69
2023-04-21T23:23:28.011Z,66.90
2023-04-21T23:24:28.016Z,66.90
2023-04-21T23:25:28.014Z,66.49
2023-04-21T23:26:27.972Z,66.49
2023-04-21T23:27:27.967Z,66.72
2023-04-21T23:28:27.952Z,66.93
2023-04-21T23:29:27.947Z,66.52
2023-04-21T23:30:27.940Z,67.33
2023-04-21T23:31:27.992Z,66.63
2023-04-21T23:32:27.953Z,66.63
2023-04-21T23:33:27.929Z,66.83
2023-04-21T23:34:27.895Z,67.13
2023-04-21T23:35:27.889Z,67.03
2023-04-21T23:36:27.859Z,67.06
2023-04-21T23:37:27.856Z,68.18
2023-04-21T23:38:27.857Z,68.38
2023-04-21T23:39:27.831Z,67.97
2023-04-21T23:40:27.833Z,68.59
2023-04-21T23:41:27.824Z,68.99
2023-04-21T23:42:27.797Z,68.28
2023-04-21T23:43:27.779Z,68.18
2023-04-21T23:44:27.783Z,68.99
2023-04-21T23:45:27.799Z,68.69
2023-04-21T23:46:27.908Z,68.62
2023-04-21T23:47:27.776Z,69.33
2023-04-21T23:48:27.723Z,69.33
2023-04-21T23:49:27.733Z,69.23
2023-04-21T23:50:27.717Z,68.82
2023-04-21T23:51:27.770Z,69.53
2023-04-21T23:52:27.688Z,69.43
2023-04-21T23:53:27.674Z,69.33
2023-04-21T23:54:27.654Z,69.02
2023-04-21T23:55:27.661Z,69.46
2023-04-21T23:56:27.632Z,70.48
2023-04-21T23:57:27.628Z,70.28
2023-04-21T23:58:27.616Z,69.87
2023-04-21T23:59:27.601Z,70.31
